Map

Track Data

SID SEASON NUMBER BASIN SUBBASIN NAME ISO_TIME NATURE LAT LON WMO_WIND WMO_PRES WMO_AGENCY TRACK_TYPE DIST2LAND LANDFALL IFLAG USA_AGENCY USA_ATCF_ID USA_LAT USA_LON USA_RECORD USA_STATUS USA_WIND USA_PRES USA_SSHS USA_R34_NE USA_R34_SE USA_R34_SW USA_R34_NW USA_R50_NE USA_R50_SE USA_R50_SW USA_R50_NW USA_R64_NE USA_R64_SE USA_R64_SW USA_R64_NW USA_POCI USA_ROCI USA_RMW USA_EYE TOKYO_LAT TOKYO_LON TOKYO_GRADE TOKYO_WIND TOKYO_PRES TOKYO_R50_DIR TOKYO_R50_LONG TOKYO_R50_SHORT TOKYO_R30_DIR TOKYO_R30_LONG TOKYO_R30_SHORT TOKYO_LAND CMA_LAT CMA_LON CMA_CAT CMA_WIND CMA_PRES HKO_LAT HKO_LON HKO_CAT HKO_WIND HKO_PRES NEWDELHI_LAT NEWDELHI_LON NEWDELHI_GRADE NEWDELHI_WIND NEWDELHI_PRES NEWDELHI_CI NEWDELHI_DP NEWDELHI_POCI REUNION_LAT REUNION_LON REUNION_TYPE REUNION_WIND REUNION_PRES REUNION_TNUM REUNION_CI REUNION_RMW REUNION_R34_NE REUNION_R34_SE REUNION_R34_SW REUNION_R34_NW REUNION_R50_NE REUNION_R50_SE REUNION_R50_SW REUNION_R50_NW REUNION_R64_NE REUNION_R64_SE REUNION_R64_SW REUNION_R64_NW BOM_LAT BOM_LON BOM_TYPE BOM_WIND BOM_PRES BOM_TNUM BOM_CI BOM_RMW BOM_R34_NE BOM_R34_SE BOM_R34_SW BOM_R34_NW BOM_R50_NE BOM_R50_SE BOM_R50_SW BOM_R50_NW BOM_R64_NE BOM_R64_SE BOM_R64_SW BOM_R64_NW BOM_ROCI BOM_POCI BOM_EYE BOM_POS_METHOD BOM_PRES_METHOD NADI_LAT NADI_LON NADI_CAT NADI_WIND NADI_PRES WELLINGTON_LAT WELLINGTON_LON WELLINGTON_WIND WELLINGTON_PRES DS824_LAT DS824_LON DS824_STAGE DS824_WIND DS824_PRES TD9636_LAT TD9636_LON TD9636_STAGE TD9636_WIND TD9636_PRES TD9635_LAT TD9635_LON TD9635_WIND TD9635_PRES TD9635_ROCI NEUMANN_LAT NEUMANN_LON NEUMANN_CLASS NEUMANN_WIND NEUMANN_PRES MLC_LAT MLC_LON MLC_CLASS MLC_WIND MLC_PRES USA_GUST BOM_GUST BOM_GUST_PER REUNION_GUST REUNION_GUST_PER USA_SEAHGT USA_SEARAD_NE USA_SEARAD_SE USA_SEARAD_SW USA_SEARAD_NW STORM_SPEED STORM_DIR
1972214N29303 1972 66 NA NA NOT_NAMED 1972-07-31 12:00:00 TS 29.0000 -57.0000 20 hurdat_atl main 1471 1421 O_____________ hurdat_atl AL061972 29.0000 -57.0000 TD 20 -1 10 233
1972214N29303 1972 66 NA NA NOT_NAMED 1972-07-31 15:00:00 TS 28.7003 -57.4480 main 1421 1365 P_____________ AL061972 28.7003 -57.4480 TD 20 -1 10 233
1972214N29303 1972 66 NA NA NOT_NAMED 1972-07-31 18:00:00 TS 28.4000 -57.9000 20 hurdat_atl main 1365 1314 O_____________ hurdat_atl AL061972 28.4000 -57.9000 TD 20 -1 10 233
1972214N29303 1972 66 NA NA NOT_NAMED 1972-07-31 21:00:00 TS 28.0999 -58.3573 main 1309 1259 P_____________ AL061972 28.0999 -58.3573 TD 20 -1 10 233
1972214N29303 1972 66 NA NA NOT_NAMED 1972-08-01 00:00:00 TS 27.8000 -58.8000 20 hurdat_atl main 1259 1209 O_____________ hurdat_atl AL061972 27.8000 -58.8000 TD 20 -1 10 231
1972214N29303 1972 66 NA NA NOT_NAMED 1972-08-01 03:00:00 TS 27.5072 -59.1996 main 1209 1159 P_____________ AL061972 27.5072 -59.1996 TD 20 -1 9 230
1972214N29303 1972 66 NA NA NOT_NAMED 1972-08-01 06:00:00 TS 27.2000 -59.6000 20 hurdat_atl main 1159 1109 O_____________ hurdat_atl AL061972 27.2000 -59.6000 TD 20 -1 10 229
1972214N29303 1972 66 NA NA NOT_NAMED 1972-08-01 09:00:00 TS 26.8648 -60.0271 main 1109 1045 P_____________ AL061972 26.8648 -60.0271 TD 22 -1 11 229
1972214N29303 1972 66 NA NA NOT_NAMED 1972-08-01 12:00:00 TS 26.5000 -60.5000 25 hurdat_atl main 1045 982 O_____________ hurdat_atl AL061972 26.5000 -60.5000 TD 25 -1 12 230
1972214N29303 1972 66 NA NA NOT_NAMED 1972-08-01 15:00:00 TS 26.1000 -61.0350 main 982 914 P_____________ AL061972 26.1000 -61.0350 TD 25 -1 13 231
1972214N29303 1972 66 NA NA NOT_NAMED 1972-08-01 18:00:00 TS 25.7000 -61.6000 25 hurdat_atl main 914 861 O_____________ hurdat_atl AL061972 25.7000 -61.6000 TD 25 -1 13 233
1972214N29303 1972 66 NA NA NOT_NAMED 1972-08-01 21:00:00 TS 25.3422 -62.1420 main 851 796 P_____________ AL061972 25.3422 -62.1420 TD 25 -1 12 235
1972214N29303 1972 66 NA NA NOT_NAMED 1972-08-02 00:00:00 TS 25.0000 -62.7000 25 hurdat_atl main 796 743 O_____________ hurdat_atl AL061972 25.0000 -62.7000 TD 25 -1 13 237
1972214N29303 1972 66 NA NA NOT_NAMED 1972-08-02 03:00:00 TS 24.6574 -63.2997 main 743 682 P_____________ AL061972 24.6574 -63.2997 TD 25 -1 13 237
1972214N29303 1972 66 NA NA NOT_NAMED 1972-08-02 06:00:00 TS 24.3000 -63.9000 25 hurdat_atl main 682 627 O_____________ hurdat_atl AL061972 24.3000 -63.9000 TD 25 -1 13 232
1972214N29303 1972 66 NA NA NOT_NAMED 1972-08-02 09:00:00 TS 23.8398 -64.4655 main 614 573 P_____________ AL061972 23.8398 -64.4655 TD 25 -1 13 232
1972214N29303 1972 66 NA NA NOT_NAMED 1972-08-02 12:00:00 TS 23.5000 -65.0000 25 hurdat_atl main 573 570 O_____________ hurdat_atl AL061972 23.5000 -65.0000 TD 25 -1 10 249
1972214N29303 1972 66 NA NA NOT_NAMED 1972-08-02 15:00:00 TS 23.4823 -65.5067 main 570 570 P_____________ AL061972 23.4823 -65.5067 TD 25 -1 9 276
1972214N29303 1972 66 NA NA NOT_NAMED 1972-08-02 18:00:00 TS 23.6000 -66.0000 25 hurdat_atl main 581 561 O_____________ hurdat_atl AL061972 23.6000 -66.0000 TD 25 -1 9 280
1972214N29303 1972 66 NA NA NOT_NAMED 1972-08-02 21:00:00 TS 23.6498 -66.5000 main 561 546 P_____________ AL061972 23.6498 -66.5000 TD 25 -1 9 276
1972214N29303 1972 66 NA NA NOT_NAMED 1972-08-03 00:00:00 TS 23.7000 -67.0000 25 hurdat_atl main 546 526 O_____________ hurdat_atl AL061972 23.7000 -67.0000 TD 25 -1 9 276
1972214N29303 1972 66 NA NA NOT_NAMED 1972-08-03 03:00:00 TS 23.7423 -67.5001 main 526 513 P_____________ AL061972 23.7423 -67.5001 TD 22 -1 9 276
1972214N29303 1972 66 NA NA NOT_NAMED 1972-08-03 06:00:00 TS 23.8000 -68.0000 20 hurdat_atl main 513 501 O_____________ hurdat_atl AL061972 23.8000 -68.0000 TD 20 -1 9 279
1972214N29303 1972 66 NA NA NOT_NAMED 1972-08-03 09:00:00 TS 23.8903 -68.4998 main 505 497 P_____________ AL061972 23.8903 -68.4998 TD 20 -1 9 282
1972214N29303 1972 66 NA NA NOT_NAMED 1972-08-03 12:00:00 TS 24.0000 -69.0000 20 hurdat_atl main 497 O_____________ hurdat_atl AL061972 24.0000 -69.0000 TD 20 -1 9 284

About IBTrACS Database

This database is a web-friendly format of International Best Track Archive for Climate Stewardship (IBTrACS), a global best track data archive curated by NOAA dating back to 1842.

Updated: 2021-12-01